Hlavní strana
METAR-TAF:

METAR-TAF

Letiště :

Georgetown, Ascension

zeměpisná šířka: 07-58S, zeměpisná délka: 014-24W, výška: 86 m

Aktuální stav počasí

Zpráva byla vytvořena před 57 minutami, v 20:50 UTC
Jihovýchodní vítr 11 kt
Teplota 25°C
Vlhkost vzduchu 74%
Tlak 1013 hPa
Viditelnost 10 km a více
Skoro jasno ve výšce 1900 ft

METAR: FHAW 222050Z 13011KT 9999 FEW019 25/20 Q1013 BLU

Čas: 21:47 (21:47 UTC)

Předpověď počasí

Zpráva byla vytvořena před 2 hodinami a 17 minutami, v 19:30 UTC
Předpověď platná od 22 v 21 UTC do 23 v 15 UTC
Jihovýchodní vítr 13 kt
Viditelnost 10 km a více
Skoro jasno ve výšce 1800 ft
Polojasno ve výšce 4500 ft
Pravděpodobnost 30% :
Dočasný
od 22 v 21 UTC do 23 v 15 UTC
Polojasno ve výšce 1500 ft

TAF: FHAW 221930Z 2221/2315 14013KT 9999 FEW018 SCT045 PROB30 TEMPO 2221/2315 SCT015

Stav a předpovědi počasí z více než 4 000 letišť (zprávy METAR a TAF).

Červené a žluté tečky na mapě představují dostupné meteorologické stanice.

Když kurzor umístíte na tečku, zobrazí se název stanice.

Pak kliknutím zobrazíte stav a předpověď počasí.

Chcete-li změnit mapu, kliknutím na zelené tlačítko se znaménkem +mapu přiblížíte, kliknutím na zelené tlačítko se znaménkem – mapu oddálíte a kliknutím na zelené šipky přejdete na sousední mapy.


METAR-TAF: